Karup/Midtjyllands Airport

Airport
ICAO code: 
EKKA
IATA Code: 
KRP
Summary
ICAO Region: 
EUR
Territory: 
Location: 
Viborg, Jutland
Serving: 
Karup
Elevation: 
170 ft
Coordinates: 
Aerial View: 
56° 17' 54.39" N, 9° 6' 28.858" E
Metar
Observation
EKKA 011032Z 10024G34KT 3500 -RASN OVC007 01/00 Q0978 TEMPO 08022G35KT 2500 SNRA BKN004
Station
Karup
Date/Time
2021-12-01 10:32:00
Wind direction
100°
Wind speed
24 kts
Lowest cloud amount
overcast
Temperature
1°C
Dew point
0°C
Humidity
93%
QNH
978 hPa
Weather condition
n/a

Midtjyllands Airport, formerly known as Karup Airport, is an airport in Denmark.

Climatology

Oceanic climate (Köppen climate classification Cfb)

Runways

Designator Length Width Surface Rops
14/32 700 18 PEM Yes/Yes
9/27 850 60 GRS No/No
4/22 895 15 PEM Yes/Yes
09R/27L 2928 46 PEM Yes/Yes
09L/27R 2992 23 ASP Yes/Yes
Airport map: 
Aerial View: 

Accidents and Serious Incidents at or in the vicinity of EKKA

SKYbrary Partners:

Safety knowledge contributed by: